Time;durP1;ratioP1;P1;durP2;ratioP2;P2;SDS_P1;SDS_P2;PMS_P1;PMS_P2;Temp;Humidity;BMP_temperature;BMP_pressure;BME280_temperature;BME280_humidity;BME280_pressure;Samples;Min_cycle;Max_cycle;Signal;HPM_P1;HPM_P2
2022/06/19 08:44:12;;;;;;;9.93;2.80;;;14.20;99.90;;;;;;5137719;27;20394;-78
2022/06/19 08:46:59;;;;;;;9.18;2.30;;;;;;;;;;5100255;27;20966;-79
2022/06/19 08:49:47;;;;;;;9.93;2.45;;;;;;;;;;5115944;27;20431;-79
2022/06/19 08:52:20;;;;;;;10.98;2.95;;;;;;;;;;5114928;27;20485;-73
2022/06/19 08:54:54;;;;;;;10.63;2.38;;;14.50;99.90;;;;;;5116645;27;20416;-73
2022/06/19 08:57:38;;;;;;;12.07;2.22;;;14.60;99.90;;;;;;5100167;28;20422;-73
2022/06/19 09:00:11;;;;;;;11.40;2.70;;;;;;;;;;5104345;27;20411;-73
2022/06/19 09:03:03;;;;;;;11.80;2.58;;;14.50;99.90;;;;;;5110763;27;20442;-73
2022/06/19 09:05:47;;;;;;;10.30;2.85;;;;;;;;;;5091453;27;20921;-73
2022/06/19 09:19:52;;;;;;;12.15;2.58;;;14.70;99.90;;;;;;5141601;27;20447;-73
2022/06/19 09:22:32;;;;;;;12.05;2.30;;;14.50;99.90;;;;;;5100178;28;20830;-73
2022/06/19 09:25:17;;;;;;;9.00;2.40;;;;;;;;;;5099544;28;20428;-72
2022/06/19 09:28:05;;;;;;;9.45;2.40;;;14.90;99.90;;;;;;5096981;28;20932;-74
2022/06/19 09:30:40;;;;;;;8.90;2.25;;;14.90;99.90;;;;;;5094431;28;20432;-73
2022/06/19 09:33:23;;;;;;;8.48;1.92;;;15.10;99.90;;;;;;5079618;27;20445;-73
2022/06/19 09:36:00;;;;;;;8.77;2.10;;;;;;;;;;5096208;28;20432;-73
2022/06/19 09:38:45;;;;;;;9.07;2.40;;;;;;;;;;5104763;28;20494;-73
2022/06/19 09:41:14;;;;;;;7.30;1.80;;;;;;;;;;5080264;28;20441;-72
2022/06/19 09:43:48;;;;;;;6.73;1.90;;;15.10;99.90;;;;;;5068551;28;20828;-79
2022/06/19 09:46:17;;;;;;;9.77;2.30;;;15.30;99.90;;;;;;5067537;28;20420;-79
2022/06/19 09:49:06;;;;;;;8.35;2.20;;;15.10;99.90;;;;;;5081297;28;20510;-79
2022/06/19 09:51:54;;;;;;;9.13;2.13;;;15.40;99.90;;;;;;5064021;28;20421;-79
2022/06/19 09:54:20;;;;;;;7.03;1.95;;;;;;;;;;5065412;28;20845;-79
2022/06/19 09:56:52;;;;;;;6.68;1.65;;;15.40;99.90;;;;;;5083503;28;20547;-77
2022/06/19 09:59:34;;;;;;;7.03;1.70;;;;;;;;;;5095887;28;20970;-78
2022/06/19 10:02:10;;;;;;;8.35;1.75;;;15.50;99.90;;;;;;5060096;28;20425;-76
2022/06/19 10:04:47;;;;;;;5.60;1.77;;;15.80;99.90;;;;;;5079246;28;20424;-77
2022/06/19 10:07:34;;;;;;;8.30;2.03;;;;;;;;;;5078861;28;20410;-77
2022/06/19 10:10:06;;;;;;;6.32;1.90;;;15.50;99.90;;;;;;5081450;28;20825;-77
2022/06/19 10:12:43;;;;;;;6.90;1.83;;;15.60;99.90;;;;;;5071925;28;20427;-77
2022/06/19 10:15:18;;;;;;;10.00;2.05;;;;;;;;;;5095274;28;20401;-77
2022/06/19 10:18:08;;;;;;;7.03;1.80;;;;;;;;;;5058664;28;20929;-77
2022/06/19 10:21:01;;;;;;;9.85;1.98;;;15.90;99.90;;;;;;5058149;28;21750;-77
2022/06/19 10:23:54;;;;;;;7.65;1.85;;;15.60;99.90;;;;;;5076520;28;20420;-77
2022/06/19 10:26:33;;;;;;;6.97;1.77;;;15.50;99.90;;;;;;5081101;28;20433;-77
2022/06/19 10:29:11;;;;;;;4.05;1.48;;;;;;;;;;5080586;28;20456;-77
2022/06/19 10:31:59;;;;;;;7.13;1.80;;;15.60;99.90;;;;;;5061914;28;20500;-76
2022/06/19 10:34:42;;;;;;;5.85;1.60;;;16.10;99.90;;;;;;5047301;28;21050;-77
2022/06/19 10:37:46;;;;;;;6.77;1.60;;;15.70;99.90;;;;;;5065002;28;20421;-76
2022/06/19 10:40:23;;;;;;;6.03;1.77;;;15.70;99.90;;;;;;5054675;28;20422;-77
2022/06/19 10:43:22;;;;;;;6.00;1.65;;;16.20;99.90;;;;;;5050893;28;20418;-77
2022/06/19 10:45:52;;;;;;;4.63;1.50;;;16.60;99.90;;;;;;5064816;28;20418;-76
2022/06/19 10:49:09;;;;;;;6.27;1.40;;;16.50;99.90;;;;;;5061471;28;20917;-76
2022/06/19 10:51:34;;;;;;;4.53;1.27;;;16.40;99.90;;;;;;5007750;28;20426;-76
2022/06/19 10:54:11;;;;;;;4.57;1.57;;;16.40;99.90;;;;;;5071387;28;20422;-75
2022/06/19 10:57:02;;;;;;;3.97;1.40;;;16.40;99.90;;;;;;5063545;28;20414;-75
2022/06/19 10:59:28;;;;;;;4.15;1.23;;;16.50;99.90;;;;;;5069112;28;20456;-75
2022/06/19 11:05:02;;;;;;;4.95;1.40;;;16.60;99.90;;;;;;5057411;28;20400;-71
2022/06/19 11:07:30;;;;;;;5.43;1.40;;;16.90;99.90;;;;;;5057471;28;20897;-71
2022/06/19 11:10:10;;;;;;;4.82;1.30;;;16.70;99.90;;;;;;5071647;28;20403;-71
2022/06/19 11:12:48;;;;;;;4.85;1.30;;;16.50;99.90;;;;;;5073260;28;20485;-71
2022/06/19 11:15:28;;;;;;;3.85;1.00;;;16.40;99.90;;;;;;5090303;28;20402;-70
2022/06/19 11:18:08;;;;;;;5.22;1.30;;;16.50;99.90;;;;;;5054545;28;20426;-70
2022/06/19 11:20:34;;;;;;;3.60;1.30;;;16.60;99.90;;;;;;5077335;28;20885;-70
2022/06/19 11:23:02;;;;;;;4.05;1.20;;;16.60;99.90;;;;;;5055049;28;20404;-70
2022/06/19 11:25:32;;;;;;;5.05;1.30;;;16.40;99.90;;;;;;5058263;28;20404;-70
2022/06/19 11:28:04;;;;;;;2.00;0.98;;;;;;;;;;5071429;28;20474;-71
2022/06/19 11:30:37;;;;;;;4.07;1.27;;;16.40;99.90;;;;;;5056195;28;20414;-71
2022/06/19 12:08:27;;;;;;;4.05;1.40;;;16.10;99.90;;;;;;5163242;27;20370;-76
2022/06/19 12:10:57;;;;;;;4.47;1.38;;;16.00;99.90;;;;;;5122762;27;21387;-76
2022/06/19 12:13:38;;;;;;;6.80;1.25;;;16.10;99.90;;;;;;5178984;27;20418;-75
2022/06/19 12:16:21;;;;;;;6.40;1.48;;;16.30;99.90;;;;;;5144911;27;20420;-76
2022/06/19 12:18:48;;;;;;;4.45;1.48;;;16.60;99.90;;;;;;5132933;27;20422;-75
2022/06/19 12:21:24;;;;;;;5.30;1.30;;;17.00;99.90;;;;;;5136287;27;20528;-75
2022/06/19 12:24:00;;;;;;;5.63;1.52;;;17.10;99.90;;;;;;5177998;27;20518;-75
2022/06/19 12:26:35;;;;;;;4.10;1.30;;;17.50;99.90;;;;;;5143317;27;20985;-76
2022/06/19 12:29:22;;;;;;;4.82;1.65;;;17.60;99.90;;;;;;5143411;27;20433;-76
2022/06/19 12:31:48;;;;;;;6.63;1.52;;;17.80;99.90;;;;;;5136605;27;20493;-75
2022/06/19 12:34:18;;;;;;;6.75;1.63;;;17.80;99.90;;;;;;5138195;27;20501;-75
2022/06/19 12:36:44;;;;;;;8.00;2.00;;;17.90;99.90;;;;;;5140136;27;20438;-76
2022/06/19 12:39:17;;;;;;;5.13;1.55;;;17.60;99.90;;;;;;5137576;27;20910;-76
2022/06/19 12:42:04;;;;;;;7.27;1.80;;;17.50;99.90;;;;;;5133076;27;20420;-76
2022/06/19 12:44:51;;;;;;;5.97;1.70;;;17.30;99.90;;;;;;5132386;27;21023;-76
2022/06/19 12:47:36;;;;;;;7.38;1.50;;;17.60;99.90;;;;;;5131699;27;20447;-76
2022/06/19 12:50:23;;;;;;;6.72;1.90;;;17.80;99.90;;;;;;5129668;27;20411;-77
2022/06/19 12:52:55;;;;;;;8.35;1.95;;;17.70;99.90;;;;;;5131831;27;20438;-78
2022/06/19 12:55:38;;;;;;;6.30;1.60;;;17.60;99.90;;;;;;5112894;27;20444;-77
2022/06/19 12:58:34;;;;;;;5.85;1.60;;;17.30;99.90;;;;;;5136213;27;20728;-78
2022/06/19 13:01:10;;;;;;;6.25;1.70;;;17.60;99.90;;;;;;5126699;27;20494;-79
2022/06/19 13:03:47;;;;;;;5.15;1.65;;;17.60;99.90;;;;;;5113428;27;20942;-78
2022/06/19 13:06:34;;;;;;;5.20;1.50;;;17.60;99.90;;;;;;5120453;27;20422;-78
2022/06/19 13:09:18;;;;;;;5.35;1.58;;;17.60;99.90;;;;;;5127796;27;20440;-79
2022/06/19 13:12:02;;;;;;;4.88;1.30;;;17.70;99.90;;;;;;5128316;27;20768;-78
2022/06/19 13:14:40;;;;;;;5.07;1.80;;;17.60;99.90;;;;;;5131634;27;20418;-78
2022/06/19 13:17:17;;;;;;;6.13;1.80;;;17.50;99.90;;;;;;5117416;27;20919;-78
2022/06/19 13:20:16;;;;;;;6.72;1.40;;;17.20;99.90;;;;;;5107631;27;20410;-78
2022/06/19 13:23:07;;;;;;;4.60;1.52;;;17.20;99.90;;;;;;5118095;27;20927;-78
2022/06/19 13:25:43;;;;;;;5.50;1.52;;;17.50;99.90;;;;;;5103563;27;20432;-78
2022/06/19 13:28:31;;;;;;;5.33;1.33;;;17.60;99.90;;;;;;5120014;27;20416;-73
2022/06/19 13:31:24;;;;;;;4.97;1.42;;;17.60;99.90;;;;;;5116619;27;20458;-79
2022/06/19 13:34:20;;;;;;;4.32;1.75;;;17.60;99.90;;;;;;5109241;27;21148;-79
2022/06/19 13:37:07;;;;;;;4.57;1.60;;;17.80;99.90;;;;;;5112048;27;20915;-79
2022/06/19 13:40:01;;;;;;;4.72;1.40;;;17.70;99.90;;;;;;5098872;27;20440;-78
2022/06/19 13:42:36;;;;;;;4.80;1.45;;;18.10;99.90;;;;;;5106142;27;20413;-79
2022/06/19 13:45:07;;;;;;;4.75;1.50;;;17.90;99.90;;;;;;5099648;27;20424;-79
2022/06/19 13:47:49;;;;;;;4.85;1.40;;;18.00;99.90;;;;;;5119936;27;20418;-78
2022/06/19 13:50:24;;;;;;;5.57;1.67;;;18.20;99.90;;;;;;5122581;27;20427;-79
2022/06/19 13:53:20;;;;;;;7.32;1.70;;;18.50;99.90;;;;;;5106765;27;20416;-79
2022/06/19 13:55:58;;;;;;;5.18;1.70;;;18.60;99.90;;;;;;5115450;27;20848;-79
2022/06/19 13:58:42;;;;;;;7.97;2.72;;;18.40;99.90;;;;;;5100295;27;20905;-79
2022/06/19 14:01:51;;;;;;;7.40;2.20;;;18.40;99.90;;;;;;5117468;27;20493;-78
2022/06/19 14:04:56;;;;;;;7.60;1.70;;;18.50;99.90;;;;;;5067530;27;20456;-79
2022/06/19 14:07:33;;;;;;;6.13;1.70;;;18.60;99.90;;;;;;5107593;28;20420;-79
2022/06/19 14:10:18;;;;;;;6.30;1.67;;;18.30;99.90;;;;;;5120216;27;20415;-79
2022/06/19 14:13:08;;;;;;;7.03;1.70;;;18.10;99.90;;;;;;5100187;27;20416;-78
2022/06/19 14:16:15;;;;;;;5.75;1.70;;;18.30;99.90;;;;;;5117660;27;20420;-79
2022/06/19 14:18:43;;;;;;;7.05;2.03;;;18.70;99.90;;;;;;5082672;28;20420;-73
2022/06/19 14:21:36;;;;;;;7.07;2.00;;;19.00;99.90;;;;;;5105799;27;20399;-73
2022/06/19 14:24:37;;;;;;;6.50;1.92;;;19.30;99.90;;;;;;5108767;28;20414;-73
2022/06/19 14:27:08;;;;;;;6.60;1.80;;;19.50;99.90;;;;;;5117723;27;20420;-74
2022/06/19 14:29:48;;;;;;;5.20;1.58;;;20.30;99.90;;;;;;5103280;27;20423;-74
2022/06/19 14:32:16;;;;;;;7.03;1.70;;;20.70;99.90;;;;;;5121411;27;20464;-73
2022/06/19 14:34:55;;;;;;;7.85;1.92;;;20.90;99.90;;;;;;5094827;27;20430;-74
2022/06/19 14:37:29;;;;;;;8.02;1.92;;;20.80;99.90;;;;;;5116247;27;20428;-74
2022/06/19 14:40:25;;;;;;;8.57;1.77;;;20.30;99.90;;;;;;5096900;27;20416;-74
2022/06/19 14:43:02;;;;;;;6.60;1.90;;;20.30;99.90;;;;;;5120232;27;20462;-74
2022/06/19 14:45:44;;;;;;;8.27;1.73;;;20.10;99.90;;;;;;5102636;27;20402;-74
2022/06/19 14:48:31;;;;;;;6.18;1.70;;;19.90;99.90;;;;;;5096462;27;20428;-74
2022/06/19 14:51:15;;;;;;;10.18;2.20;;;19.80;99.90;;;;;;5111763;27;20511;-75
2022/06/19 14:54:01;;;;;;;7.97;2.10;;;20.20;99.90;;;;;;5102358;27;20418;-74
2022/06/19 14:56:52;;;;;;;7.25;1.60;;;20.00;99.90;;;;;;5114550;27;20424;-74
2022/06/19 14:59:28;;;;;;;6.35;1.90;;;20.10;99.90;;;;;;5118693;27;20409;-74
2022/06/19 15:01:56;;;;;;;7.07;1.90;;;20.10;99.90;;;;;;5128527;27;20420;-74
2022/06/19 15:04:35;;;;;;;6.18;1.90;;;19.90;99.90;;;;;;5127579;27;20435;-74
2022/06/19 15:07:14;;;;;;;7.30;2.00;;;19.60;99.90;;;;;;5118678;27;20427;-74
2022/06/19 15:09:46;;;;;;;6.63;1.80;;;19.50;99.90;;;;;;5113406;27;20908;-74
2022/06/19 15:12:15;;;;;;;6.85;1.90;;;19.30;99.90;;;;;;5100092;27;20427;-75
2022/06/19 15:15:24;;;;;;;7.70;1.73;;;19.30;99.90;;;;;;5110601;27;20416;-74
2022/06/19 15:18:21;;;;;;;6.80;1.77;;;18.80;99.90;;;;;;5115167;27;20414;-74
2022/06/19 15:21:22;;;;;;;9.30;2.15;;;18.70;99.90;;;;;;5098143;27;20451;-74
2022/06/19 15:23:48;;;;;;;8.75;2.08;;;18.50;99.90;;;;;;5105476;27;20410;-74
2022/06/19 15:26:19;;;;;;;7.83;1.83;;;18.70;99.90;;;;;;5094545;27;20817;-74
2022/06/19 15:28:45;;;;;;;7.10;2.25;;;18.70;99.90;;;;;;5121541;27;20414;-74
2022/06/19 15:31:23;;;;;;;5.72;1.92;;;18.40;99.90;;;;;;5118538;27;20427;-74
2022/06/19 15:33:57;;;;;;;6.85;1.88;;;18.40;99.90;;;;;;5118505;27;20485;-74
2022/06/19 15:36:49;;;;;;;8.50;2.10;;;18.00;99.90;;;;;;5096772;28;20424;-74
2022/06/19 15:39:14;;;;;;;8.23;2.10;;;18.20;99.90;;;;;;5094164;27;20462;-74
2022/06/19 15:41:44;;;;;;;6.70;1.93;;;17.90;99.90;;;;;;5111750;27;20456;-74
2022/06/19 15:44:19;;;;;;;8.52;2.30;;;17.70;99.90;;;;;;5128972;27;20784;-73
2022/06/19 15:47:11;;;;;;;6.15;1.95;;;17.90;99.90;;;;;;5123952;27;20428;-73
2022/06/19 15:49:48;;;;;;;9.88;2.03;;;18.00;99.90;;;;;;5091274;28;20416;-73
2022/06/19 15:52:28;;;;;;;8.48;2.47;;;17.90;99.90;;;;;;5118804;27;21006;-74
2022/06/19 15:55:04;;;;;;;7.13;2.05;;;17.50;99.90;;;;;;5097946;27;20451;-73
2022/06/19 15:57:30;;;;;;;6.90;1.90;;;17.50;99.90;;;;;;5107088;28;20397;-74
2022/06/19 16:00:00;;;;;;;7.80;2.57;;;;;;;;;;5122711;27;20426;-74
2022/06/19 16:02:30;;;;;;;7.05;2.00;;;17.50;99.90;;;;;;5108005;28;20427;-74
2022/06/19 16:04:59;;;;;;;7.72;2.33;;;17.70;99.90;;;;;;5104815;27;20424;-73
2022/06/19 16:07:40;;;;;;;9.15;2.15;;;17.60;99.90;;;;;;5090259;28;20423;-74
2022/06/19 16:10:27;;;;;;;7.78;1.90;;;;;;;;;;5108911;28;20426;-73
2022/06/19 16:13:16;;;;;;;9.23;2.08;;;17.90;99.90;;;;;;5115192;27;20935;-74
2022/06/19 16:15:45;;;;;;;9.68;2.30;;;17.90;99.90;;;;;;5107197;27;20444;-73
2022/06/19 16:18:29;;;;;;;8.77;2.60;;;17.90;99.90;;;;;;5085295;28;20471;-74
2022/06/19 16:20:57;;;;;;;8.57;2.03;;;17.90;99.90;;;;;;5109824;27;20750;-73
2022/06/19 16:23:25;;;;;;;9.10;2.53;;;17.90;99.90;;;;;;5130817;27;20397;-74
2022/06/19 16:25:52;;;;;;;7.83;2.40;;;;;;;;;;5123236;27;20443;-74
2022/06/19 16:28:22;;;;;;;8.75;2.30;;;18.20;99.90;;;;;;5120601;27;20497;-73
2022/06/19 16:31:12;;;;;;;7.80;2.13;;;18.00;99.90;;;;;;5116833;27;20448;-73
2022/06/19 16:33:50;;;;;;;7.30;1.92;;;17.80;99.90;;;;;;5112982;27;20433;-73
2022/06/19 16:45:12;;;;;;;8.80;2.50;;;17.60;99.90;;;;;;5112040;28;20422;-73
2022/06/19 16:47:38;;;;;;;12.07;3.00;;;17.60;99.90;;;;;;5117917;27;20503;-73
2022/06/19 16:50:07;;;;;;;8.98;2.45;;;17.40;99.90;;;;;;5126649;27;20394;-74
2022/06/19 16:52:36;;;;;;;9.52;2.55;;;17.70;99.90;;;;;;5122243;27;20422;-74
2022/06/19 16:55:10;;;;;;;9.02;2.45;;;17.60;99.90;;;;;;5121710;27;20414;-74
2022/06/19 16:57:46;;;;;;;11.45;2.83;;;17.70;99.90;;;;;;5121100;27;20419;-74
2022/06/19 17:00:20;;;;;;;8.80;2.35;;;17.70;99.90;;;;;;5092879;27;20903;-74
2022/06/19 17:02:51;;;;;;;11.55;2.30;;;17.80;99.90;;;;;;5102442;27;20426;-74
2022/06/19 17:05:17;;;;;;;9.30;2.20;;;17.60;99.90;;;;;;5117781;27;20433;-73
2022/06/19 17:10:32;;;;;;;9.02;2.70;;;17.70;99.90;;;;;;5106371;27;20506;-79
2022/06/19 17:12:59;;;;;;;10.88;2.20;;;17.40;99.90;;;;;;5112228;27;20417;-78
2022/06/19 17:15:25;;;;;;;9.77;2.92;;;17.40;99.90;;;;;;5104197;27;20944;-78
2022/06/19 17:17:51;;;;;;;9.27;2.35;;;;;;;;;;5074010;28;20460;-78
2022/06/19 17:20:22;;;;;;;10.00;2.03;;;17.60;99.90;;;;;;5096706;27;20427;-75
2022/06/19 17:23:02;;;;;;;9.77;2.30;;;17.40;99.90;;;;;;5123873;27;20418;-74
2022/06/19 17:25:32;;;;;;;8.73;2.50;;;17.20;99.90;;;;;;5115128;27;20497;-74
2022/06/19 17:28:02;;;;;;;10.85;2.45;;;;;;;;;;5133886;27;20504;-77
2022/06/19 17:30:38;;;;;;;11.73;2.58;;;;;;;;;;5105094;27;20427;-77
2022/06/19 17:33:38;;;;;;;9.80;2.43;;;17.50;99.90;;;;;;5136187;27;20414;-77
2022/06/19 17:36:15;;;;;;;8.93;2.10;;;17.20;99.90;;;;;;5082707;27;20451;-76
2022/06/19 17:38:51;;;;;;;9.32;2.20;;;17.20;99.90;;;;;;5121569;27;20421;-77
2022/06/19 17:41:38;;;;;;;8.03;1.93;;;;;;;;;;5121393;27;20529;-76
2022/06/19 17:44:23;;;;;;;9.52;2.22;;;17.10;99.90;;;;;;5120658;27;20908;-76
2022/06/19 17:46:55;;;;;;;7.88;1.88;;;;;;;;;;5094066;27;21078;-77
2022/06/19 17:49:38;;;;;;;10.55;2.65;;;17.00;99.90;;;;;;5120887;27;20408;-77
2022/06/19 17:52:36;;;;;;;8.60;2.20;;;16.70;99.90;;;;;;5116111;27;20420;-77
2022/06/19 17:55:24;;;;;;;10.60;2.28;;;17.00;99.90;;;;;;5112939;27;20416;-79
2022/06/19 17:58:14;;;;;;;7.13;1.83;;;16.70;99.90;;;;;;5120488;27;20515;-79
2022/06/19 18:01:02;;;;;;;8.50;2.30;;;16.90;99.90;;;;;;5103607;27;20418;-78
2022/06/19 18:03:31;;;;;;;11.80;2.20;;;16.50;99.90;;;;;;5113060;27;20517;-78
2022/06/19 18:05:57;;;;;;;11.57;2.35;;;16.50;99.90;;;;;;5112261;27;20708;-78
2022/06/19 18:08:32;;;;;;;8.05;1.92;;;16.40;99.90;;;;;;5124492;27;20409;-79
2022/06/19 18:11:10;;;;;;;9.98;2.60;;;;;;;;;;5114064;27;20532;-78
2022/06/19 18:13:48;;;;;;;9.60;1.90;;;16.40;99.90;;;;;;5119362;27;20406;-79
2022/06/19 18:19:01;;;;;;;8.90;1.80;;;16.30;99.90;;;;;;5117885;27;20766;-80
2022/06/19 18:21:32;;;;;;;7.53;1.90;;;;;;;;;;5102757;27;20475;-79
2022/06/19 18:24:04;;;;;;;7.57;1.80;;;16.00;99.90;;;;;;5129752;27;20924;-80
2022/06/19 18:26:55;;;;;;;8.10;1.92;;;16.30;99.90;;;;;;5122294;27;20425;-79
2022/06/19 18:29:38;;;;;;;8.57;2.07;;;16.10;99.90;;;;;;5105028;28;20814;-80
2022/06/19 18:32:04;;;;;;;6.82;1.67;;;;;;;;;;5118308;27;20457;-80
2022/06/19 18:34:30;;;;;;;9.27;2.10;;;;;;;;;;5113138;27;20437;-82
2022/06/19 18:36:57;;;;;;;7.70;1.77;;;15.90;99.90;;;;;;5085047;27;20483;-80
2022/06/19 18:39:33;;;;;;;9.98;2.42;;;16.00;99.90;;;;;;5116195;27;20926;-77
2022/06/19 18:42:00;;;;;;;6.67;2.07;;;;;;;;;;5099100;27;20424;-79
2022/06/19 18:44:28;;;;;;;8.98;1.98;;;15.80;99.90;;;;;;5082937;28;20454;-80
2022/06/19 18:46:58;;;;;;;9.57;2.15;;;;;;;;;;5116519;27;20427;-79
2022/06/19 18:49:30;;;;;;;9.60;2.25;;;;;;;;;;5095225;28;20413;-79
2022/06/19 18:51:57;;;;;;;7.05;2.00;;;;;;;;;;5111573;27;20410;-83
2022/06/19 18:54:26;;;;;;;8.25;1.95;;;15.80;99.90;;;;;;5094386;28;20412;-83
2022/06/19 18:56:53;;;;;;;8.47;2.10;;;;;;;;;;5102353;27;20993;-83
2022/06/19 18:59:20;;;;;;;5.72;1.50;;;15.90;99.90;;;;;;5124981;27;20467;-83
2022/06/19 19:01:46;;;;;;;8.63;2.10;;;;;;;;;;5083460;28;20420;-83
2022/06/19 19:04:12;;;;;;;8.50;1.92;;;16.00;99.90;;;;;;5123168;27;20414;-83
2022/06/19 19:06:40;;;;;;;7.25;1.70;;;15.90;99.90;;;;;;5095904;27;20783;-83
2022/06/19 19:09:09;;;;;;;6.13;1.60;;;;;;;;;;5096993;27;20454;-81
2022/06/19 19:11:36;;;;;;;8.77;2.20;;;;;;;;;;5096427;27;20416;-80
2022/06/19 19:14:04;;;;;;;5.57;1.60;;;15.70;99.90;;;;;;5093867;27;20414;-80
2022/06/19 19:16:37;;;;;;;8.32;1.80;;;16.00;99.90;;;;;;5101073;28;21051;-83
2022/06/19 19:19:07;;;;;;;7.50;1.73;;;;;;;;;;5118198;27;20412;-83
2022/06/19 19:21:33;;;;;;;7.88;2.00;;;;;;;;;;5096460;28;20907;-83
2022/06/19 19:23:59;;;;;;;8.73;2.17;;;;;;;;;;5106662;27;20483;-83
2022/06/19 19:26:28;;;;;;;8.65;2.00;;;;;;;;;;5099513;28;20493;-83
2022/06/19 19:28:58;;;;;;;7.82;2.00;;;15.70;99.90;;;;;;5126818;27;20486;-83
2022/06/19 19:31:26;;;;;;;6.97;1.90;;;15.70;99.90;;;;;;5132781;27;20414;-83
2022/06/19 19:33:56;;;;;;;7.75;2.10;;;15.80;99.90;;;;;;5114620;27;20412;-83
2022/06/19 19:36:22;;;;;;;8.38;2.05;;;;;;;;;;5111210;27;20827;-83
2022/06/19 19:38:49;;;;;;;7.90;1.92;;;15.60;99.90;;;;;;5108226;27;20431;-84
2022/06/19 19:41:16;;;;;;;6.35;1.70;;;;;;;;;;5123290;27;20416;-83
2022/06/19 19:43:44;;;;;;;8.15;2.10;;;;;;;;;;5102161;27;20414;-83
2022/06/19 19:46:21;;;;;;;7.97;1.83;;;15.80;99.90;;;;;;5108367;27;20427;-83
2022/06/19 19:48:49;;;;;;;6.20;2.40;;;15.40;99.90;;;;;;5103996;28;20514;-83
2022/06/19 20:36:59;;;;;;;10.35;2.35;;;;;;;;;;5118186;27;20402;-80
2022/06/19 20:39:27;;;;;;;7.95;2.00;;;14.60;99.90;;;;;;5108247;28;20910;-80
2022/06/19 20:44:38;;;;;;;10.32;2.20;;;;;;;;;;5136347;27;20421;-81
2022/06/19 20:47:06;;;;;;;7.50;1.83;;;14.50;99.90;;;;;;5103482;27;20423;-80
2022/06/19 20:49:44;;;;;;;6.75;1.88;;;14.80;99.90;;;;;;5104057;28;20469;-81
2022/06/19 20:52:13;;;;;;;9.38;1.70;;;14.80;99.90;;;;;;5107097;27;20993;-81
2022/06/19 20:54:40;;;;;;;7.20;1.90;;;;;;;;;;5099504;28;20436;-81
2022/06/19 20:57:08;;;;;;;7.00;2.00;;;14.50;99.90;;;;;;5111389;28;20452;-81
2022/06/19 20:59:34;;;;;;;9.40;1.88;;;14.70;99.90;;;;;;5107702;27;20418;-81
2022/06/19 21:02:00;;;;;;;8.77;2.03;;;;;;;;;;5089749;28;20416;-81
2022/06/19 21:04:26;;;;;;;7.35;1.90;;;;;;;;;;5116207;27;20466;-81
2022/06/19 21:06:52;;;;;;;8.20;1.77;;;;;;;;;;5105642;28;21034;-80
2022/06/19 21:09:19;;;;;;;6.85;2.10;;;;;;;;;;5131546;27;20805;-81
2022/06/19 21:11:46;;;;;;;7.13;2.05;;;;;;;;;;5110964;27;20425;-81
2022/06/19 21:14:14;;;;;;;6.60;2.00;;;14.50;99.90;;;;;;5114164;27;20454;-81
2022/06/19 21:16:40;;;;;;;6.63;1.98;;;;;;;;;;5101819;27;20808;-81
2022/06/19 21:19:07;;;;;;;6.90;1.83;;;14.40;99.90;;;;;;5089713;28;20534;-82
2022/06/19 21:21:35;;;;;;;7.53;1.95;;;14.60;99.90;;;;;;5097898;28;20970;-81
2022/06/19 21:24:03;;;;;;;5.75;1.80;;;;;;;;;;5115033;27;20424;-81
2022/06/19 21:26:28;;;;;;;7.60;2.00;;;14.50;99.90;;;;;;5113417;27;20451;-81
2022/06/19 21:28:55;;;;;;;9.45;2.20;;;;;;;;;;5090362;28;20889;-81
2022/06/19 21:31:21;;;;;;;12.85;2.60;;;;;;;;;;5110009;27;20846;-81
2022/06/19 21:33:48;;;;;;;7.43;2.17;;;;;;;;;;5100654;28;20456;-81
2022/06/19 21:36:18;;;;;;;6.70;2.17;;;14.40;99.90;;;;;;5105683;28;20516;-81
2022/06/19 21:38:45;;;;;;;7.55;1.88;;;;;;;;;;5120352;28;20897;-81
2022/06/19 21:41:24;;;;;;;7.50;2.08;;;14.40;99.90;;;;;;5118681;27;20425;-81
2022/06/19 21:43:50;;;;;;;6.85;1.90;;;;;;;;;;5106688;27;20413;-81
2022/06/19 21:46:19;;;;;;;8.63;2.33;;;14.20;99.90;;;;;;5113574;28;20446;-81
2022/06/19 21:48:45;;;;;;;8.93;1.95;;;14.60;99.90;;;;;;5095954;28;20910;-81
2022/06/19 21:51:13;;;;;;;8.20;1.90;;;14.20;99.90;;;;;;5096254;28;20479;-82
2022/06/19 21:53:39;;;;;;;7.30;2.00;;;;;;;;;;5104586;28;20418;-81
2022/06/19 21:56:05;;;;;;;7.60;1.90;;;14.50;99.90;;;;;;5095933;28;20782;-81
2022/06/19 21:58:32;;;;;;;7.00;2.00;;;;;;;;;;5081396;28;20432;-82
2022/06/19 22:00:58;;;;;;;8.90;2.20;;;14.90;99.90;;;;;;5075961;28;20393;-81
2022/06/19 22:03:26;;;;;;;6.90;2.00;;;14.60;99.90;;;;;;5088394;28;20420;-81
2022/06/19 22:06:04;;;;;;;6.30;2.20;;;;;;;;;;5082118;28;20428;-81
2022/06/19 22:08:30;;;;;;;8.27;2.05;;;;;;;;;;5081533;28;20508;-81
2022/06/19 22:13:43;;;;;;;7.25;2.45;;;14.40;99.90;;;;;;5101451;28;20477;-81
2022/06/19 22:16:17;;;;;;;9.68;2.50;;;14.60;99.90;;;;;;5087315;28;20427;-81
2022/06/19 22:18:44;;;;;;;7.82;2.60;;;;;;;;;;5088420;28;20425;-81
2022/06/19 22:21:12;;;;;;;10.00;2.63;;;14.10;99.90;;;;;;5104913;28;20425;-80
2022/06/19 22:23:39;;;;;;;8.93;2.28;;;;;;;;;;5093669;28;20504;-80
2022/06/19 22:26:05;;;;;;;8.23;2.17;;;;;;;;;;5110293;28;20424;-80
2022/06/19 22:28:31;;;;;;;9.75;2.55;;;;;;;;;;5091983;28;20420;-81
2022/06/19 22:30:57;;;;;;;9.75;2.20;;;;;;;;;;5089600;28;20425;-81
2022/06/19 22:33:24;;;;;;;9.77;2.50;;;;;;;;;;5094669;28;20451;-82
2022/06/19 22:35:51;;;;;;;8.02;2.30;;;;;;;;;;5088854;28;20434;-82
2022/06/19 22:38:17;;;;;;;7.90;2.13;;;14.40;99.90;;;;;;5088608;28;20450;-82
2022/06/19 22:41:03;;;;;;;10.18;2.70;;;14.50;99.90;;;;;;5084801;28;20412;-82
2022/06/19 22:43:29;;;;;;;10.77;2.67;;;;;;;;;;5095840;28;20405;-81
2022/06/19 22:45:55;;;;;;;6.22;2.58;;;14.50;99.90;;;;;;5123564;28;20424;-82
2022/06/19 22:48:22;;;;;;;11.20;3.65;;;14.40;99.90;;;;;;5085261;28;20420;-82
2022/06/19 22:50:48;;;;;;;9.45;2.60;;;;;;;;;;5084322;28;20435;-82
2022/06/19 22:53:14;;;;;;;8.23;2.40;;;;;;;;;;5090850;28;20502;-82
2022/06/19 22:55:40;;;;;;;9.65;2.55;;;14.50;99.90;;;;;;5089555;28;20806;-82
2022/06/19 23:01:40;;;;;;;9.05;2.80;;;14.40;99.90;;;;;;5089905;28;20412;-82
2022/06/19 23:04:00;;;;;;;10.88;2.85;;;14.60;99.90;;;;;;5100266;28;20422;-82
2022/06/19 23:06:26;;;;;;;8.93;2.95;;;;;;;;;;5066021;28;20874;-82
2022/06/19 23:08:52;;;;;;;8.30;2.88;;;;;;;;;;5091260;28;20424;-82
2022/06/19 23:11:18;;;;;;;8.43;2.70;;;14.50;99.90;;;;;;5091523;28;20418;-82
2022/06/19 23:13:44;;;;;;;9.50;2.60;;;;;;;;;;5080147;28;20435;-82
2022/06/19 23:16:13;;;;;;;10.38;2.65;;;14.60;99.90;;;;;;5097238;28;20422;-82
2022/06/19 23:18:41;;;;;;;7.03;2.70;;;;;;;;;;5092412;28;20419;-82
2022/06/19 23:21:08;;;;;;;6.85;2.28;;;14.50;99.90;;;;;;5088173;28;20426;-82
2022/06/19 23:23:34;;;;;;;6.85;2.55;;;;;;;;;;5099308;28;20420;-82
2022/06/19 23:26:06;;;;;;;9.93;3.07;;;14.20;99.90;;;;;;5096307;28;20422;-82
2022/06/19 23:29:04;;;;;;;10.07;3.40;;;14.50;99.90;;;;;;5094641;28;20445;-81
2022/06/19 23:31:30;;;;;;;11.10;2.80;;;;;;;;;;5060379;28;20412;-81
2022/06/19 23:33:57;;;;;;;9.07;2.83;;;;;;;;;;5109274;27;20787;-81
2022/06/19 23:36:24;;;;;;;8.30;2.75;;;;;;;;;;5109236;28;20933;-81
2022/06/19 23:38:53;;;;;;;12.77;2.88;;;14.20;99.90;;;;;;5082623;28;20441;-82
2022/06/19 23:41:19;;;;;;;9.60;2.88;;;;;;;;;;5089954;28;20417;-82
2022/06/19 23:43:52;;;;;;;6.20;2.47;;;14.30;99.90;;;;;;5091863;28;20421;-81
2022/06/19 23:46:18;;;;;;;8.17;2.70;;;;;;;;;;5085896;28;20470;-82
2022/06/19 23:48:45;;;;;;;8.80;2.72;;;;;;;;;;5097734;28;20412;-82
2022/06/19 23:51:14;;;;;;;9.50;2.72;;;;;;;;;;5106074;28;20444;-82
2022/06/19 23:53:41;;;;;;;7.57;2.88;;;14.10;99.90;;;;;;5088860;28;20423;-82
2022/06/19 23:56:07;;;;;;;8.43;2.87;;;;;;;;;;5101393;28;20802;-82
2022/06/19 23:58:36;;;;;;;9.77;3.15;;;14.10;99.90;;;;;;5093278;28;20913;-82
